sensor_id;sensor_type;location;lat;lon;timestamp;pressure;altitude;pressure_sealevel;temperature
73937;BMP180;59249;59.736;30.568;2024-01-16T00:01:13;97654.00;;;-8.20
73937;BMP180;59249;59.736;30.568;2024-01-16T00:03:43;97649.00;;;-8.20
73937;BMP180;59249;59.736;30.568;2024-01-16T00:06:13;97649.00;;;-8.30
73937;BMP180;59249;59.736;30.568;2024-01-16T00:08:43;97658.00;;;-8.30
73937;BMP180;59249;59.736;30.568;2024-01-16T00:11:12;97647.00;;;-8.30
73937;BMP180;59249;59.736;30.568;2024-01-16T00:13:41;97650.00;;;-8.30
73937;BMP180;59249;59.736;30.568;2024-01-16T00:16:10;97658.00;;;-8.30
73937;BMP180;59249;59.736;30.568;2024-01-16T00:18:39;97644.00;;;-8.30
73937;BMP180;59249;59.736;30.568;2024-01-16T00:21:08;97647.00;;;-8.40
73937;BMP180;59249;59.736;30.568;2024-01-16T00:23:37;97642.00;;;-8.40
73937;BMP180;59249;59.736;30.568;2024-01-16T00:26:08;97652.00;;;-8.30
73937;BMP180;59249;59.736;30.568;2024-01-16T00:28:37;97640.00;;;-8.30
73937;BMP180;59249;59.736;30.568;2024-01-16T00:31:07;97642.00;;;-8.30
73937;BMP180;59249;59.736;30.568;2024-01-16T00:33:37;97641.00;;;-8.40
73937;BMP180;59249;59.736;30.568;2024-01-16T00:36:07;97644.00;;;-8.30
73937;BMP180;59249;59.736;30.568;2024-01-16T00:38:36;97642.00;;;-8.30
73937;BMP180;59249;59.736;30.568;2024-01-16T00:41:05;97631.00;;;-8.30
73937;BMP180;59249;59.736;30.568;2024-01-16T00:43:36;97634.00;;;-8.30
73937;BMP180;59249;59.736;30.568;2024-01-16T00:46:05;97635.00;;;-8.30
73937;BMP180;59249;59.736;30.568;2024-01-16T00:48:34;97633.00;;;-8.30
73937;BMP180;59249;59.736;30.568;2024-01-16T00:51:04;97630.00;;;-8.20
73937;BMP180;59249;59.736;30.568;2024-01-16T00:53:33;97631.00;;;-8.30
73937;BMP180;59249;59.736;30.568;2024-01-16T00:56:08;97635.00;;;-8.30
73937;BMP180;59249;59.736;30.568;2024-01-16T00:58:38;97625.00;;;-8.20
73937;BMP180;59249;59.736;30.568;2024-01-16T01:01:07;97628.00;;;-8.30
73937;BMP180;59249;59.736;30.568;2024-01-16T01:03:36;97625.00;;;-8.30
73937;BMP180;59249;59.736;30.568;2024-01-16T01:06:05;97633.00;;;-8.30
73937;BMP180;59249;59.736;30.568;2024-01-16T01:08:35;97634.00;;;-8.30
73937;BMP180;59249;59.736;30.568;2024-01-16T01:11:04;97629.00;;;-8.20
73937;BMP180;59249;59.736;30.568;2024-01-16T01:13:33;97634.00;;;-8.20
73937;BMP180;59249;59.736;30.568;2024-01-16T01:16:04;97625.00;;;-8.30
73937;BMP180;59249;59.736;30.568;2024-01-16T01:18:34;97634.00;;;-8.20
73937;BMP180;59249;59.736;30.568;2024-01-16T01:21:04;97634.00;;;-8.20
73937;BMP180;59249;59.736;30.568;2024-01-16T01:23:33;97637.00;;;-8.20
73937;BMP180;59249;59.736;30.568;2024-01-16T01:26:02;97632.00;;;-8.20
73937;BMP180;59249;59.736;30.568;2024-01-16T01:28:32;97637.00;;;-8.20
73937;BMP180;59249;59.736;30.568;2024-01-16T01:31:02;97628.00;;;-8.10
73937;BMP180;59249;59.736;30.568;2024-01-16T01:33:31;97634.00;;;-8.10
73937;BMP180;59249;59.736;30.568;2024-01-16T01:36:00;97628.00;;;-8.10
73937;BMP180;59249;59.736;30.568;2024-01-16T01:38:29;97633.00;;;-8.10
73937;BMP180;59249;59.736;30.568;2024-01-16T01:40:58;97639.00;;;-8.10
73937;BMP180;59249;59.736;30.568;2024-01-16T01:43:27;97646.00;;;-8.10
73937;BMP180;59249;59.736;30.568;2024-01-16T01:46:09;97629.00;;;-8.10
73937;BMP180;59249;59.736;30.568;2024-01-16T01:48:42;97639.00;;;-8.10
73937;BMP180;59249;59.736;30.568;2024-01-16T01:51:12;97627.00;;;-8.10
73937;BMP180;59249;59.736;30.568;2024-01-16T01:53:43;97631.00;;;-8.00
73937;BMP180;59249;59.736;30.568;2024-01-16T01:56:15;97631.00;;;-8.00
73937;BMP180;59249;59.736;30.568;2024-01-16T01:58:47;97631.00;;;-8.00
73937;BMP180;59249;59.736;30.568;2024-01-16T02:01:19;97629.00;;;-8.00
73937;BMP180;59249;59.736;30.568;2024-01-16T02:03:51;97635.00;;;-8.00
73937;BMP180;59249;59.736;30.568;2024-01-16T02:06:24;97623.00;;;-7.90
73937;BMP180;59249;59.736;30.568;2024-01-16T02:08:53;97628.00;;;-7.90
73937;BMP180;59249;59.736;30.568;2024-01-16T02:11:22;97624.00;;;-7.90
73937;BMP180;59249;59.736;30.568;2024-01-16T02:13:51;97626.00;;;-7.90
73937;BMP180;59249;59.736;30.568;2024-01-16T02:16:23;97618.00;;;-7.90
73937;BMP180;59249;59.736;30.568;2024-01-16T02:18:52;97621.00;;;-7.80
73937;BMP180;59249;59.736;30.568;2024-01-16T02:21:22;97628.00;;;-7.90
73937;BMP180;59249;59.736;30.568;2024-01-16T02:23:55;97626.00;;;-7.90
73937;BMP180;59249;59.736;30.568;2024-01-16T02:26:24;97624.00;;;-7.80
73937;BMP180;59249;59.736;30.568;2024-01-16T02:28:53;97626.00;;;-7.80
73937;BMP180;59249;59.736;30.568;2024-01-16T02:31:22;97619.00;;;-7.80
73937;BMP180;59249;59.736;30.568;2024-01-16T02:33:51;97632.00;;;-7.80
73937;BMP180;59249;59.736;30.568;2024-01-16T02:36:20;97622.00;;;-7.70
73937;BMP180;59249;59.736;30.568;2024-01-16T02:38:49;97626.00;;;-7.80
73937;BMP180;59249;59.736;30.568;2024-01-16T02:41:20;97623.00;;;-7.80
73937;BMP180;59249;59.736;30.568;2024-01-16T02:43:49;97618.00;;;-7.80
73937;BMP180;59249;59.736;30.568;2024-01-16T02:46:18;97632.00;;;-7.80
73937;BMP180;59249;59.736;30.568;2024-01-16T02:48:47;97627.00;;;-7.80
73937;BMP180;59249;59.736;30.568;2024-01-16T02:51:16;97639.00;;;-7.80
73937;BMP180;59249;59.736;30.568;2024-01-16T02:53:45;97629.00;;;-7.80
73937;BMP180;59249;59.736;30.568;2024-01-16T02:56:14;97631.00;;;-7.70
73937;BMP180;59249;59.736;30.568;2024-01-16T02:58:44;97637.00;;;-7.70
73937;BMP180;59249;59.736;30.568;2024-01-16T03:01:14;97624.00;;;-7.70
73937;BMP180;59249;59.736;30.568;2024-01-16T03:03:43;97622.00;;;-7.60
73937;BMP180;59249;59.736;30.568;2024-01-16T03:06:21;97632.00;;;-7.60
73937;BMP180;59249;59.736;30.568;2024-01-16T03:08:52;97624.00;;;-7.60
73937;BMP180;59249;59.736;30.568;2024-01-16T03:11:21;97630.00;;;-7.80
73937;BMP180;59249;59.736;30.568;2024-01-16T03:13:51;97637.00;;;-7.60
73937;BMP180;59249;59.736;30.568;2024-01-16T03:16:20;97650.00;;;-7.60
73937;BMP180;59249;59.736;30.568;2024-01-16T03:18:50;97634.00;;;-7.50
73937;BMP180;59249;59.736;30.568;2024-01-16T03:21:19;97643.00;;;-7.50
73937;BMP180;59249;59.736;30.568;2024-01-16T03:23:48;97641.00;;;-7.40
73937;BMP180;59249;59.736;30.568;2024-01-16T03:26:17;97634.00;;;-7.40
73937;BMP180;59249;59.736;30.568;2024-01-16T03:28:46;97629.00;;;-7.40
73937;BMP180;59249;59.736;30.568;2024-01-16T03:31:16;97637.00;;;-7.40
73937;BMP180;59249;59.736;30.568;2024-01-16T03:33:48;97633.00;;;-7.40
73937;BMP180;59249;59.736;30.568;2024-01-16T03:36:17;97628.00;;;-7.40
73937;BMP180;59249;59.736;30.568;2024-01-16T03:38:47;97646.00;;;-7.40
73937;BMP180;59249;59.736;30.568;2024-01-16T03:41:16;97639.00;;;-7.40
73937;BMP180;59249;59.736;30.568;2024-01-16T03:43:45;97646.00;;;-7.40
73937;BMP180;59249;59.736;30.568;2024-01-16T03:46:14;97643.00;;;-7.40
73937;BMP180;59249;59.736;30.568;2024-01-16T03:48:44;97648.00;;;-7.30
73937;BMP180;59249;59.736;30.568;2024-01-16T03:51:13;97648.00;;;-7.40
73937;BMP180;59249;59.736;30.568;2024-01-16T03:53:45;97653.00;;;-7.40
73937;BMP180;59249;59.736;30.568;2024-01-16T03:56:14;97636.00;;;-7.30
73937;BMP180;59249;59.736;30.568;2024-01-16T03:58:44;97632.00;;;-7.40
73937;BMP180;59249;59.736;30.568;2024-01-16T04:01:14;97637.00;;;-7.40
73937;BMP180;59249;59.736;30.568;2024-01-16T04:03:45;97642.00;;;-7.40
73937;BMP180;59249;59.736;30.568;2024-01-16T04:06:15;97639.00;;;-7.30
73937;BMP180;59249;59.736;30.568;2024-01-16T04:08:45;97640.00;;;-7.30
73937;BMP180;59249;59.736;30.568;2024-01-16T04:11:15;97630.00;;;-7.20
73937;BMP180;59249;59.736;30.568;2024-01-16T04:13:44;97635.00;;;-7.20
73937;BMP180;59249;59.736;30.568;2024-01-16T04:16:14;97629.00;;;-7.20
73937;BMP180;59249;59.736;30.568;2024-01-16T04:18:45;97628.00;;;-7.20
73937;BMP180;59249;59.736;30.568;2024-01-16T04:21:14;97630.00;;;-7.20
73937;BMP180;59249;59.736;30.568;2024-01-16T04:23:47;97645.00;;;-7.30
73937;BMP180;59249;59.736;30.568;2024-01-16T04:26:16;97631.00;;;-7.30
73937;BMP180;59249;59.736;30.568;2024-01-16T04:28:45;97625.00;;;-7.40
73937;BMP180;59249;59.736;30.568;2024-01-16T04:31:14;97642.00;;;-7.30
73937;BMP180;59249;59.736;30.568;2024-01-16T04:33:46;97632.00;;;-7.20
73937;BMP180;59249;59.736;30.568;2024-01-16T04:36:15;97627.00;;;-7.20
73937;BMP180;59249;59.736;30.568;2024-01-16T04:38:43;97628.00;;;-7.20
73937;BMP180;59249;59.736;30.568;2024-01-16T04:41:13;97632.00;;;-7.20
73937;BMP180;59249;59.736;30.568;2024-01-16T04:43:42;97623.00;;;-7.20
73937;BMP180;59249;59.736;30.568;2024-01-16T04:46:12;97630.00;;;-7.10
73937;BMP180;59249;59.736;30.568;2024-01-16T04:48:42;97637.00;;;-7.10
73937;BMP180;59249;59.736;30.568;2024-01-16T04:51:13;97635.00;;;-7.20
73937;BMP180;59249;59.736;30.568;2024-01-16T04:53:42;97646.00;;;-7.20
73937;BMP180;59249;59.736;30.568;2024-01-16T04:56:11;97650.00;;;-7.10
73937;BMP180;59249;59.736;30.568;2024-01-16T04:58:41;97654.00;;;-7.10
73937;BMP180;59249;59.736;30.568;2024-01-16T05:01:10;97638.00;;;-7.20
73937;BMP180;59249;59.736;30.568;2024-01-16T05:03:40;97652.00;;;-7.10
73937;BMP180;59249;59.736;30.568;2024-01-16T05:06:14;97657.00;;;-7.10
73937;BMP180;59249;59.736;30.568;2024-01-16T05:08:46;97665.00;;;-7.10
73937;BMP180;59249;59.736;30.568;2024-01-16T05:11:15;97662.00;;;-7.20
73937;BMP180;59249;59.736;30.568;2024-01-16T05:13:45;97661.00;;;-7.10
73937;BMP180;59249;59.736;30.568;2024-01-16T05:16:13;97665.00;;;-7.10
73937;BMP180;59249;59.736;30.568;2024-01-16T05:18:42;97670.00;;;-7.10
73937;BMP180;59249;59.736;30.568;2024-01-16T05:21:12;97672.00;;;-7.10
73937;BMP180;59249;59.736;30.568;2024-01-16T05:23:42;97674.00;;;-7.00
73937;BMP180;59249;59.736;30.568;2024-01-16T05:26:11;97671.00;;;-6.90
73937;BMP180;59249;59.736;30.568;2024-01-16T05:28:40;97674.00;;;-7.00
73937;BMP180;59249;59.736;30.568;2024-01-16T05:31:09;97672.00;;;-7.00
73937;BMP180;59249;59.736;30.568;2024-01-16T05:33:38;97674.00;;;-6.90
73937;BMP180;59249;59.736;30.568;2024-01-16T05:36:08;97675.00;;;-6.90
73937;BMP180;59249;59.736;30.568;2024-01-16T05:38:39;97680.00;;;-6.90
73937;BMP180;59249;59.736;30.568;2024-01-16T05:41:08;97680.00;;;-6.90
73937;BMP180;59249;59.736;30.568;2024-01-16T05:43:37;97681.00;;;-6.90
73937;BMP180;59249;59.736;30.568;2024-01-16T05:46:06;97690.00;;;-7.00
73937;BMP180;59249;59.736;30.568;2024-01-16T05:48:35;97691.00;;;-7.00
73937;BMP180;59249;59.736;30.568;2024-01-16T05:51:05;97682.00;;;-7.00
73937;BMP180;59249;59.736;30.568;2024-01-16T05:53:34;97696.00;;;-6.90
73937;BMP180;59249;59.736;30.568;2024-01-16T05:56:05;97686.00;;;-6.90
73937;BMP180;59249;59.736;30.568;2024-01-16T05:58:35;97683.00;;;-6.90
73937;BMP180;59249;59.736;30.568;2024-01-16T06:01:06;97682.00;;;-7.10
73937;BMP180;59249;59.736;30.568;2024-01-16T06:03:43;97695.00;;;-7.00
73937;BMP180;59249;59.736;30.568;2024-01-16T06:06:14;97691.00;;;-7.10
73937;BMP180;59249;59.736;30.568;2024-01-16T06:08:43;97695.00;;;-7.00
73937;BMP180;59249;59.736;30.568;2024-01-16T06:11:15;97692.00;;;-7.10
73937;BMP180;59249;59.736;30.568;2024-01-16T06:13:45;97700.00;;;-7.10
73937;BMP180;59249;59.736;30.568;2024-01-16T06:16:14;97700.00;;;-7.00
73937;BMP180;59249;59.736;30.568;2024-01-16T06:18:43;97695.00;;;-7.00
73937;BMP180;59249;59.736;30.568;2024-01-16T06:21:13;97710.00;;;-7.10
73937;BMP180;59249;59.736;30.568;2024-01-16T06:23:44;97706.00;;;-7.00
73937;BMP180;59249;59.736;30.568;2024-01-16T06:26:14;97717.00;;;-7.10
73937;BMP180;59249;59.736;30.568;2024-01-16T06:28:44;97710.00;;;-7.00
73937;BMP180;59249;59.736;30.568;2024-01-16T06:31:13;97711.00;;;-7.10
73937;BMP180;59249;59.736;30.568;2024-01-16T06:33:42;97717.00;;;-7.00
73937;BMP180;59249;59.736;30.568;2024-01-16T06:36:12;97723.00;;;-6.90
73937;BMP180;59249;59.736;30.568;2024-01-16T06:38:41;97717.00;;;-6.90
73937;BMP180;59249;59.736;30.568;2024-01-16T06:41:10;97726.00;;;-7.00
73937;BMP180;59249;59.736;30.568;2024-01-16T06:43:40;97724.00;;;-6.90
73937;BMP180;59249;59.736;30.568;2024-01-16T06:46:10;97733.00;;;-7.00
73937;BMP180;59249;59.736;30.568;2024-01-16T06:48:39;97727.00;;;-7.00
73937;BMP180;59249;59.736;30.568;2024-01-16T06:51:08;97736.00;;;-7.00
73937;BMP180;59249;59.736;30.568;2024-01-16T06:53:37;97738.00;;;-7.00
73937;BMP180;59249;59.736;30.568;2024-01-16T06:56:06;97742.00;;;-6.90
73937;BMP180;59249;59.736;30.568;2024-01-16T06:58:36;97750.00;;;-7.00
73937;BMP180;59249;59.736;30.568;2024-01-16T07:01:06;97730.00;;;-7.00
73937;BMP180;59249;59.736;30.568;2024-01-16T07:03:37;97741.00;;;-6.90
73937;BMP180;59249;59.736;30.568;2024-01-16T07:06:06;97743.00;;;-6.80
73937;BMP180;59249;59.736;30.568;2024-01-16T07:08:36;97749.00;;;-6.90
73937;BMP180;59249;59.736;30.568;2024-01-16T07:11:05;97744.00;;;-6.80
73937;BMP180;59249;59.736;30.568;2024-01-16T07:13:36;97742.00;;;-6.80
73937;BMP180;59249;59.736;30.568;2024-01-16T07:16:08;97733.00;;;-6.80
73937;BMP180;59249;59.736;30.568;2024-01-16T07:18:38;97743.00;;;-6.80
73937;BMP180;59249;59.736;30.568;2024-01-16T07:21:17;97743.00;;;-6.70
73937;BMP180;59249;59.736;30.568;2024-01-16T07:23:48;97738.00;;;-6.70
73937;BMP180;59249;59.736;30.568;2024-01-16T07:26:17;97751.00;;;-6.60
73937;BMP180;59249;59.736;30.568;2024-01-16T07:28:46;97765.00;;;-6.70
73937;BMP180;59249;59.736;30.568;2024-01-16T07:31:17;97762.00;;;-6.70
73937;BMP180;59249;59.736;30.568;2024-01-16T07:33:46;97767.00;;;-6.60
73937;BMP180;59249;59.736;30.568;2024-01-16T07:36:16;97773.00;;;-6.60
73937;BMP180;59249;59.736;30.568;2024-01-16T07:38:45;97777.00;;;-6.60
73937;BMP180;59249;59.736;30.568;2024-01-16T07:41:14;97769.00;;;-6.70
73937;BMP180;59249;59.736;30.568;2024-01-16T07:43:42;97766.00;;;-6.60
73937;BMP180;59249;59.736;30.568;2024-01-16T07:46:17;97769.00;;;-6.50
73937;BMP180;59249;59.736;30.568;2024-01-16T07:48:46;97780.00;;;-6.60
73937;BMP180;59249;59.736;30.568;2024-01-16T07:51:15;97774.00;;;-6.50
73937;BMP180;59249;59.736;30.568;2024-01-16T07:53:44;97784.00;;;-6.50
73937;BMP180;59249;59.736;30.568;2024-01-16T07:56:13;97787.00;;;-6.50
73937;BMP180;59249;59.736;30.568;2024-01-16T07:58:42;97798.00;;;-6.50
73937;BMP180;59249;59.736;30.568;2024-01-16T08:01:11;97791.00;;;-6.40
73937;BMP180;59249;59.736;30.568;2024-01-16T08:03:42;97786.00;;;-6.50
73937;BMP180;59249;59.736;30.568;2024-01-16T08:06:11;97793.00;;;-6.30
73937;BMP180;59249;59.736;30.568;2024-01-16T08:08:40;97803.00;;;-6.30
73937;BMP180;59249;59.736;30.568;2024-01-16T08:11:09;97794.00;;;-6.30
73937;BMP180;59249;59.736;30.568;2024-01-16T08:13:38;97798.00;;;-6.40
73937;BMP180;59249;59.736;30.568;2024-01-16T08:16:07;97794.00;;;-6.40
73937;BMP180;59249;59.736;30.568;2024-01-16T08:18:38;97791.00;;;-6.30
73937;BMP180;59249;59.736;30.568;2024-01-16T08:21:09;97801.00;;;-6.40
73937;BMP180;59249;59.736;30.568;2024-01-16T08:23:38;97802.00;;;-6.40
73937;BMP180;59249;59.736;30.568;2024-01-16T08:26:07;97802.00;;;-6.30
73937;BMP180;59249;59.736;30.568;2024-01-16T08:28:36;97815.00;;;-6.30
73937;BMP180;59249;59.736;30.568;2024-01-16T08:31:05;97802.00;;;-6.30
73937;BMP180;59249;59.736;30.568;2024-01-16T08:33:34;97814.00;;;-6.20
73937;BMP180;59249;59.736;30.568;2024-01-16T08:36:14;97804.00;;;-6.20
73937;BMP180;59249;59.736;30.568;2024-01-16T08:38:43;97815.00;;;-6.20
73937;BMP180;59249;59.736;30.568;2024-01-16T08:41:12;97816.00;;;-6.10
73937;BMP180;59249;59.736;30.568;2024-01-16T08:43:42;97819.00;;;-6.10
73937;BMP180;59249;59.736;30.568;2024-01-16T08:46:10;97817.00;;;-6.20
73937;BMP180;59249;59.736;30.568;2024-01-16T08:48:39;97817.00;;;-6.20
73937;BMP180;59249;59.736;30.568;2024-01-16T08:51:11;97823.00;;;-6.20
73937;BMP180;59249;59.736;30.568;2024-01-16T08:53:43;97827.00;;;-6.20
73937;BMP180;59249;59.736;30.568;2024-01-16T08:56:12;97833.00;;;-6.10
73937;BMP180;59249;59.736;30.568;2024-01-16T08:58:41;97838.00;;;-6.20
73937;BMP180;59249;59.736;30.568;2024-01-16T09:01:10;97834.00;;;-6.30
73937;BMP180;59249;59.736;30.568;2024-01-16T09:03:39;97841.00;;;-6.40
73937;BMP180;59249;59.736;30.568;2024-01-16T09:06:08;97851.00;;;-6.40
73937;BMP180;59249;59.736;30.568;2024-01-16T09:08:38;97849.00;;;-6.50
73937;BMP180;59249;59.736;30.568;2024-01-16T09:11:09;97855.00;;;-6.60
73937;BMP180;59249;59.736;30.568;2024-01-16T09:13:38;97856.00;;;-6.70
73937;BMP180;59249;59.736;30.568;2024-01-16T09:16:07;97855.00;;;-6.60
73937;BMP180;59249;59.736;30.568;2024-01-16T09:18:36;97866.00;;;-6.70
73937;BMP180;59249;59.736;30.568;2024-01-16T09:21:06;97867.00;;;-6.70
73937;BMP180;59249;59.736;30.568;2024-01-16T09:23:34;97863.00;;;-6.70
73937;BMP180;59249;59.736;30.568;2024-01-16T09:26:03;97867.00;;;-6.60
73937;BMP180;59249;59.736;30.568;2024-01-16T09:28:34;97860.00;;;-6.70
73937;BMP180;59249;59.736;30.568;2024-01-16T09:31:03;97876.00;;;-6.80
73937;BMP180;59249;59.736;30.568;2024-01-16T09:33:34;97885.00;;;-6.80
73937;BMP180;59249;59.736;30.568;2024-01-16T09:36:04;97879.00;;;-6.90
73937;BMP180;59249;59.736;30.568;2024-01-16T09:38:33;97876.00;;;-7.00
73937;BMP180;59249;59.736;30.568;2024-01-16T09:41:03;97878.00;;;-7.10
73937;BMP180;59249;59.736;30.568;2024-01-16T09:43:34;97874.00;;;-7.20
73937;BMP180;59249;59.736;30.568;2024-01-16T09:46:05;97877.00;;;-7.10
73937;BMP180;59249;59.736;30.568;2024-01-16T09:48:38;97869.00;;;-7.20
73937;BMP180;59249;59.736;30.568;2024-01-16T09:51:08;97879.00;;;-7.10
73937;BMP180;59249;59.736;30.568;2024-01-16T09:53:42;97872.00;;;-7.20
73937;BMP180;59249;59.736;30.568;2024-01-16T09:56:14;97890.00;;;-7.30
73937;BMP180;59249;59.736;30.568;2024-01-16T09:58:48;97898.00;;;-7.40
73937;BMP180;59249;59.736;30.568;2024-01-16T10:01:19;97896.00;;;-7.50
73937;BMP180;59249;59.736;30.568;2024-01-16T10:03:50;97891.00;;;-7.60
73937;BMP180;59249;59.736;30.568;2024-01-16T10:06:20;97905.00;;;-7.60
73937;BMP180;59249;59.736;30.568;2024-01-16T10:08:51;97906.00;;;-7.50
73937;BMP180;59249;59.736;30.568;2024-01-16T10:11:20;97912.00;;;-7.40
73937;BMP180;59249;59.736;30.568;2024-01-16T10:13:51;97925.00;;;-7.50
73937;BMP180;59249;59.736;30.568;2024-01-16T10:16:20;97928.00;;;-7.60
73937;BMP180;59249;59.736;30.568;2024-01-16T10:19:03;97922.00;;;-7.40
73937;BMP180;59249;59.736;30.568;2024-01-16T10:21:37;97933.00;;;-7.50
73937;BMP180;59249;59.736;30.568;2024-01-16T10:24:11;97942.00;;;-7.50
73937;BMP180;59249;59.736;30.568;2024-01-16T10:26:41;97944.00;;;-7.40
73937;BMP180;59249;59.736;30.568;2024-01-16T10:29:16;97945.00;;;-7.50
73937;BMP180;59249;59.736;30.568;2024-01-16T10:31:46;97952.00;;;-7.60
73937;BMP180;59249;59.736;30.568;2024-01-16T10:34:22;97938.00;;;-7.50
73937;BMP180;59249;59.736;30.568;2024-01-16T10:36:59;97951.00;;;-7.70
73937;BMP180;59249;59.736;30.568;2024-01-16T10:39:28;97966.00;;;-7.60
73937;BMP180;59249;59.736;30.568;2024-01-16T10:42:09;97961.00;;;-7.70
73937;BMP180;59249;59.736;30.568;2024-01-16T10:44:52;97949.00;;;-7.80
73937;BMP180;59249;59.736;30.568;2024-01-16T10:47:24;97950.00;;;-7.90
73937;BMP180;59249;59.736;30.568;2024-01-16T10:49:54;97949.00;;;-8.00
73937;BMP180;59249;59.736;30.568;2024-01-16T10:52:27;97958.00;;;-8.10
73937;BMP180;59249;59.736;30.568;2024-01-16T10:55:00;97965.00;;;-8.30
73937;BMP180;59249;59.736;30.568;2024-01-16T10:57:32;97961.00;;;-8.40
73937;BMP180;59249;59.736;30.568;2024-01-16T11:00:05;97961.00;;;-8.50
73937;BMP180;59249;59.736;30.568;2024-01-16T11:02:43;97970.00;;;-8.60
73937;BMP180;59249;59.736;30.568;2024-01-16T11:05:17;97964.00;;;-8.60
73937;BMP180;59249;59.736;30.568;2024-01-16T11:07:48;97967.00;;;-8.70
73937;BMP180;59249;59.736;30.568;2024-01-16T11:10:20;97986.00;;;-8.70
73937;BMP180;59249;59.736;30.568;2024-01-16T11:12:56;97983.00;;;-8.70
73937;BMP180;59249;59.736;30.568;2024-01-16T11:15:31;97975.00;;;-8.80
73937;BMP180;59249;59.736;30.568;2024-01-16T11:18:01;97987.00;;;-9.00
73937;BMP180;59249;59.736;30.568;2024-01-16T11:20:35;97984.00;;;-9.00
73937;BMP180;59249;59.736;30.568;2024-01-16T11:23:26;97962.00;;;-9.00
73937;BMP180;59249;59.736;30.568;2024-01-16T11:26:27;97991.00;;;-9.20
73937;BMP180;59249;59.736;30.568;2024-01-16T11:29:01;97996.00;;;-9.10
73937;BMP180;59249;59.736;30.568;2024-01-16T11:32:07;97996.00;;;-9.00
73937;BMP180;59249;59.736;30.568;2024-01-16T11:34:54;98005.00;;;-9.00
73937;BMP180;59249;59.736;30.568;2024-01-16T11:37:30;98003.00;;;-9.10
73937;BMP180;59249;59.736;30.568;2024-01-16T11:40:22;97995.00;;;-9.10
73937;BMP180;59249;59.736;30.568;2024-01-16T11:42:56;98012.00;;;-9.10
73937;BMP180;59249;59.736;30.568;2024-01-16T11:45:53;98014.00;;;-9.30
73937;BMP180;59249;59.736;30.568;2024-01-16T11:48:23;98007.00;;;-9.40
73937;BMP180;59249;59.736;30.568;2024-01-16T11:50:54;98024.00;;;-9.50
73937;BMP180;59249;59.736;30.568;2024-01-16T11:53:36;98024.00;;;-9.70
73937;BMP180;59249;59.736;30.568;2024-01-16T11:56:42;98041.00;;;-9.70
73937;BMP180;59249;59.736;30.568;2024-01-16T11:59:58;98045.00;;;-9.60
73937;BMP180;59249;59.736;30.568;2024-01-16T12:03:00;98041.00;;;-9.60
73937;BMP180;59249;59.736;30.568;2024-01-16T12:05:33;98052.00;;;-9.50
73937;BMP180;59249;59.736;30.568;2024-01-16T12:08:07;98065.00;;;-9.60
73937;BMP180;59249;59.736;30.568;2024-01-16T12:10:46;98059.00;;;-9.60
73937;BMP180;59249;59.736;30.568;2024-01-16T12:13:15;98060.00;;;-9.60
73937;BMP180;59249;59.736;30.568;2024-01-16T12:15:45;98071.00;;;-9.70
73937;BMP180;59249;59.736;30.568;2024-01-16T12:18:18;98056.00;;;-9.70
73937;BMP180;59249;59.736;30.568;2024-01-16T12:21:10;98070.00;;;-9.70
73937;BMP180;59249;59.736;30.568;2024-01-16T12:23:40;98083.00;;;-9.70
73937;BMP180;59249;59.736;30.568;2024-01-16T12:26:22;98079.00;;;-9.90
73937;BMP180;59249;59.736;30.568;2024-01-16T12:28:52;98088.00;;;-10.00
73937;BMP180;59249;59.736;30.568;2024-01-16T12:31:26;98086.00;;;-10.00
73937;BMP180;59249;59.736;30.568;2024-01-16T12:34:05;98081.00;;;-10.10
73937;BMP180;59249;59.736;30.568;2024-01-16T12:36:40;98092.00;;;-10.20
73937;BMP180;59249;59.736;30.568;2024-01-16T12:39:11;98090.00;;;-10.30
73937;BMP180;59249;59.736;30.568;2024-01-16T12:41:46;98090.00;;;-10.40
73937;BMP180;59249;59.736;30.568;2024-01-16T12:44:15;98097.00;;;-10.60
73937;BMP180;59249;59.736;30.568;2024-01-16T12:46:54;98106.00;;;-10.50
73937;BMP180;59249;59.736;30.568;2024-01-16T12:49:32;98117.00;;;-10.50
73937;BMP180;59249;59.736;30.568;2024-01-16T12:52:20;98121.00;;;-10.50
73937;BMP180;59249;59.736;30.568;2024-01-16T12:55:10;98112.00;;;-10.70
73937;BMP180;59249;59.736;30.568;2024-01-16T12:57:45;98119.00;;;-10.70
73937;BMP180;59249;59.736;30.568;2024-01-16T13:00:23;98136.00;;;-10.70
73937;BMP180;59249;59.736;30.568;2024-01-16T13:02:54;98135.00;;;-10.80
73937;BMP180;59249;59.736;30.568;2024-01-16T13:05:26;98135.00;;;-10.90
73937;BMP180;59249;59.736;30.568;2024-01-16T13:08:20;98135.00;;;-10.90
73937;BMP180;59249;59.736;30.568;2024-01-16T13:11:03;98139.00;;;-11.00
73937;BMP180;59249;59.736;30.568;2024-01-16T13:13:37;98138.00;;;-11.10
73937;BMP180;59249;59.736;30.568;2024-01-16T13:16:10;98159.00;;;-11.10
73937;BMP180;59249;59.736;30.568;2024-01-16T13:19:03;98151.00;;;-11.20
73937;BMP180;59249;59.736;30.568;2024-01-16T13:21:36;98151.00;;;-11.20
73937;BMP180;59249;59.736;30.568;2024-01-16T13:24:07;98152.00;;;-11.40
73937;BMP180;59249;59.736;30.568;2024-01-16T13:26:37;98156.00;;;-11.50
73937;BMP180;59249;59.736;30.568;2024-01-16T13:29:06;98148.00;;;-11.40
73937;BMP180;59249;59.736;30.568;2024-01-16T13:31:36;98155.00;;;-11.50
73937;BMP180;59249;59.736;30.568;2024-01-16T13:34:15;98178.00;;;-11.60
73937;BMP180;59249;59.736;30.568;2024-01-16T13:36:54;98175.00;;;-11.60
73937;BMP180;59249;59.736;30.568;2024-01-16T13:39:34;98179.00;;;-11.60
73937;BMP180;59249;59.736;30.568;2024-01-16T13:42:06;98172.00;;;-11.60
73937;BMP180;59249;59.736;30.568;2024-01-16T13:44:35;98171.00;;;-11.70
73937;BMP180;59249;59.736;30.568;2024-01-16T13:47:05;98170.00;;;-11.70
73937;BMP180;59249;59.736;30.568;2024-01-16T13:49:40;98195.00;;;-11.80
73937;BMP180;59249;59.736;30.568;2024-01-16T13:52:13;98196.00;;;-11.80
73937;BMP180;59249;59.736;30.568;2024-01-16T13:54:52;98195.00;;;-11.80
73937;BMP180;59249;59.736;30.568;2024-01-16T13:57:23;98193.00;;;-11.80
73937;BMP180;59249;59.736;30.568;2024-01-16T13:59:52;98189.00;;;-11.80
73937;BMP180;59249;59.736;30.568;2024-01-16T14:02:21;98197.00;;;-11.80
73937;BMP180;59249;59.736;30.568;2024-01-16T14:04:51;98200.00;;;-11.90
73937;BMP180;59249;59.736;30.568;2024-01-16T14:07:21;98201.00;;;-11.90
73937;BMP180;59249;59.736;30.568;2024-01-16T14:09:54;98218.00;;;-11.90
73937;BMP180;59249;59.736;30.568;2024-01-16T14:12:24;98212.00;;;-11.90
73937;BMP180;59249;59.736;30.568;2024-01-16T14:14:53;98224.00;;;-12.00
73937;BMP180;59249;59.736;30.568;2024-01-16T14:17:23;98220.00;;;-12.00
73937;BMP180;59249;59.736;30.568;2024-01-16T14:19:55;98233.00;;;-12.10